CYHU/YHU METAR and TAF weather

Enter ICAO airport designator
Station Type Date Time Source
CYHU METAR 2019/02/23 22:00 UTC NOAA

CYHU 232200Z AUTO 11006KT 9SM CLR M01/M09 A3034 RMK SLP279


Station Type Date Time Source
CYHU Decoded METAR 2019/02/23 22:00 UTC NOAA

Saint Hubert Airport , Canada (CYHU) 45-31N 073-25W
Feb 23, 2019 - 05:00 PM EST / 2019.02.23 2200 UTC
Wind: from the ESE (110 degrees) at 7 MPH (6 KT):0
Visibility: 9 mile(s):0
Sky conditions: clear
Temperature: 30 F (-1 C)
Windchill: 23 F (-5 C):1
Dew Point: 15 F (-9 C)
Relative Humidity: 54%
Pressure (altimeter): 30.34 in. Hg (1027 hPa)
ob: CYHU 232200Z AUTO 11006KT 9SM CLR M01/M09 A3034 RMK SLP279
cycle: 22

Station Type Date Time Source
CYHU TAF 2019/02/23 18:42 UTC NOAA

TAF TAF CYHU 231738Z 2318/2418 VRB03KT P6SM FEW040 SCT120
FM232200 06010KT P6SM BKN120
BECMG 2401/2403 06012KT
FM240800 06012G22KT 5SM -SN OVC070
FM241000 08013G23KT 2SM -SNPL OVC020
FM241200 08013G23KT 3SM -FZRA -PL OVC008
FM241600 13015G25KT 2SM -RA BR OVC010
RMK FCST BASED ON AUTO OBS. NXT FCST BY 240000Z


Example: see airport list